createdAt,value
2022-11-05T00:02:10.850Z,6.70
2022-11-05T00:04:37.439Z,6.70
2022-11-05T00:07:30.448Z,6.70
2022-11-05T00:10:21.411Z,6.70
2022-11-05T00:12:48.384Z,6.70
2022-11-05T00:15:15.115Z,6.80
2022-11-05T00:17:41.766Z,6.70
2022-11-05T00:20:10.218Z,6.70
2022-11-05T00:22:36.842Z,6.70
2022-11-05T00:25:03.660Z,6.70
2022-11-05T00:27:33.256Z,6.70
2022-11-05T00:29:59.841Z,6.70
2022-11-05T00:32:26.486Z,6.70
2022-11-05T00:34:53.081Z,6.70
2022-11-05T00:37:19.665Z,6.80
2022-11-05T00:39:49.408Z,6.80
2022-11-05T00:42:15.980Z,6.80
2022-11-05T00:44:42.567Z,6.80
2022-11-05T00:47:09.157Z,6.80
2022-11-05T00:49:35.748Z,6.90
2022-11-05T00:52:02.357Z,6.90
2022-11-05T00:54:28.920Z,6.90
2022-11-05T00:56:57.446Z,6.90
2022-11-05T00:59:27.224Z,6.90
2022-11-05T01:01:53.881Z,6.90
2022-11-05T01:04:20.535Z,6.90
2022-11-05T01:06:47.188Z,7.00
2022-11-05T01:09:13.780Z,7.00
2022-11-05T01:11:40.374Z,7.00
2022-11-05T01:14:10.660Z,7.00
2022-11-05T01:16:38.391Z,7.00
2022-11-05T01:19:07.231Z,7.00
2022-11-05T01:21:34.039Z,7.00
2022-11-05T01:24:01.069Z,7.00
2022-11-05T01:26:27.806Z,7.10
2022-11-05T01:28:56.145Z,7.10
2022-11-05T01:31:23.618Z,7.10
2022-11-05T01:33:50.743Z,7.10
2022-11-05T01:36:17.710Z,7.10
2022-11-05T01:38:44.437Z,7.10
2022-11-05T01:41:11.250Z,7.10
2022-11-05T01:43:52.612Z,7.10
2022-11-05T01:46:25.387Z,7.10
2022-11-05T01:48:57.278Z,7.00
2022-11-05T01:51:28.301Z,7.00
2022-11-05T01:53:59.722Z,7.00
2022-11-05T01:56:43.578Z,7.00
2022-11-05T01:59:23.771Z,7.00
2022-11-05T02:01:51.096Z,7.00
2022-11-05T02:04:30.037Z,6.90
2022-11-05T02:06:56.815Z,6.90
2022-11-05T02:09:59.144Z,6.90
2022-11-05T02:12:26.325Z,6.90
2022-11-05T02:14:52.920Z,6.90
2022-11-05T02:17:38.371Z,7.00
2022-11-05T02:20:18.999Z,6.90
2022-11-05T02:23:00.759Z,6.90
2022-11-05T02:26:07.763Z,7.00
2022-11-05T02:29:09.901Z,7.00
2022-11-05T02:31:51.050Z,7.00
2022-11-05T02:34:37.782Z,7.10
2022-11-05T02:37:29.831Z,7.10
2022-11-05T02:40:04.899Z,7.10
2022-11-05T02:43:10.094Z,7.10
2022-11-05T02:45:45.689Z,7.10
2022-11-05T02:48:38.576Z,7.20
2022-11-05T02:51:35.087Z,7.20
2022-11-05T02:54:19.360Z,7.20
2022-11-05T02:56:49.638Z,7.20
2022-11-05T02:59:16.238Z,7.20
2022-11-05T03:01:45.546Z,7.20
2022-11-05T03:04:15.185Z,7.20
2022-11-05T03:06:42.167Z,7.20
2022-11-05T03:09:27.326Z,7.30
2022-11-05T03:12:15.240Z,7.20
2022-11-05T03:15:08.207Z,7.20
2022-11-05T03:17:43.582Z,7.20
2022-11-05T03:20:19.301Z,7.20
2022-11-05T03:22:54.615Z,7.20
2022-11-05T03:25:23.964Z,7.20
2022-11-05T03:27:57.095Z,7.20
2022-11-05T03:30:24.232Z,7.20
2022-11-05T03:33:08.852Z,7.20
2022-11-05T03:35:39.894Z,7.30
2022-11-05T03:38:19.645Z,7.30
2022-11-05T03:40:49.668Z,7.30
2022-11-05T03:43:17.443Z,7.30
2022-11-05T03:45:50.240Z,7.30
2022-11-05T03:48:18.502Z,7.30
2022-11-05T03:50:49.146Z,7.40
2022-11-05T03:53:21.151Z,7.40
2022-11-05T03:56:02.866Z,7.40
2022-11-05T03:58:30.491Z,7.50
2022-11-05T04:01:00.803Z,7.40
2022-11-05T04:03:27.430Z,7.40
2022-11-05T04:05:55.826Z,7.40
2022-11-05T04:08:22.419Z,7.40
2022-11-05T04:10:49.022Z,7.40
2022-11-05T04:13:15.611Z,7.40
2022-11-05T04:15:42.200Z,7.50
2022-11-05T04:18:08.783Z,7.50
2022-11-05T04:20:35.379Z,7.40
2022-11-05T04:23:04.794Z,7.40
2022-11-05T04:25:31.429Z,7.50
2022-11-05T04:28:01.296Z,7.40
2022-11-05T04:30:27.897Z,7.50
2022-11-05T04:33:02.295Z,7.50
2022-11-05T04:35:32.718Z,7.50
2022-11-05T04:37:59.471Z,7.50
2022-11-05T04:40:26.420Z,7.50
2022-11-05T04:42:57.513Z,7.50
2022-11-05T04:45:25.788Z,7.50
2022-11-05T04:47:52.400Z,7.50
2022-11-05T04:50:19.165Z,7.60
2022-11-05T04:52:46.024Z,7.60
2022-11-05T04:55:12.677Z,7.50
2022-11-05T04:57:39.517Z,7.50
2022-11-05T05:00:07.459Z,7.60
2022-11-05T05:02:35.874Z,7.50
2022-11-05T05:05:03.124Z,7.60
2022-11-05T05:07:29.818Z,7.60
2022-11-05T05:09:56.392Z,7.60
2022-11-05T05:12:23.072Z,7.60
2022-11-05T05:14:49.797Z,7.60
2022-11-05T05:17:17.025Z,7.60
2022-11-05T05:19:43.853Z,7.60
2022-11-05T05:22:10.853Z,7.50
2022-11-05T05:24:37.416Z,7.50
2022-11-05T05:27:04.058Z,7.50
2022-11-05T05:29:30.639Z,7.50
2022-11-05T05:31:57.240Z,7.50
2022-11-05T05:34:23.807Z,7.50
2022-11-05T05:36:50.377Z,7.50
2022-11-05T05:39:17.027Z,7.60
2022-11-05T05:41:43.593Z,7.50
2022-11-05T05:44:10.169Z,7.50
2022-11-05T05:46:36.731Z,7.50
2022-11-05T05:49:06.661Z,7.50
2022-11-05T05:51:37.700Z,7.50
2022-11-05T05:54:04.429Z,7.60
2022-11-05T05:56:31.329Z,7.60
2022-11-05T05:58:57.928Z,7.60
2022-11-05T06:01:24.558Z,7.60
2022-11-05T06:03:51.147Z,7.60
2022-11-05T06:06:18.463Z,7.60
2022-11-05T06:08:45.391Z,7.60
2022-11-05T06:11:12.107Z,7.60
2022-11-05T06:13:38.699Z,7.60
2022-11-05T06:16:08.333Z,7.60
2022-11-05T06:18:35.555Z,7.60
2022-11-05T06:21:07.302Z,7.60
2022-11-05T06:23:35.339Z,7.60
2022-11-05T06:26:03.359Z,7.60
2022-11-05T06:28:30.040Z,7.70
2022-11-05T06:30:57.480Z,7.70
2022-11-05T06:33:24.381Z,7.70
2022-11-05T06:35:51.116Z,7.70
2022-11-05T06:38:17.722Z,7.70
2022-11-05T06:40:44.421Z,7.70
2022-11-05T06:43:11.293Z,7.70
2022-11-05T06:45:38.056Z,7.70
2022-11-05T06:48:04.968Z,7.70
2022-11-05T06:50:31.588Z,7.70
2022-11-05T06:53:00.502Z,7.80
2022-11-05T06:55:28.573Z,7.80
2022-11-05T06:57:56.482Z,7.80
2022-11-05T07:00:23.869Z,7.70
2022-11-05T07:02:50.458Z,7.80
2022-11-05T07:05:17.598Z,7.80
2022-11-05T07:07:45.229Z,7.80
2022-11-05T07:10:21.669Z,7.80
2022-11-05T07:12:48.270Z,7.80
2022-11-05T07:15:14.929Z,7.80
2022-11-05T07:17:41.529Z,7.80
2022-11-05T07:20:08.705Z,7.80
2022-11-05T07:22:35.826Z,7.80
2022-11-05T07:25:03.601Z,7.90
2022-11-05T07:27:30.228Z,7.80
2022-11-05T07:29:56.901Z,7.80
2022-11-05T07:32:23.547Z,7.80
2022-11-05T07:34:50.128Z,7.90
2022-11-05T07:37:16.693Z,7.90
2022-11-05T07:39:43.283Z,7.90
2022-11-05T07:42:13.709Z,8.00
2022-11-05T07:44:40.328Z,7.90
2022-11-05T07:47:07.393Z,8.00
2022-11-05T07:49:33.943Z,8.00
2022-11-05T07:52:00.693Z,8.00
2022-11-05T07:54:27.337Z,8.00
2022-11-05T07:56:53.944Z,8.00
2022-11-05T07:59:20.537Z,8.00
2022-11-05T08:01:47.241Z,8.00
2022-11-05T08:04:13.962Z,8.10
2022-11-05T08:06:40.528Z,8.10
2022-11-05T08:09:07.114Z,8.10
2022-11-05T08:11:33.684Z,8.10
2022-11-05T08:14:00.256Z,8.20
2022-11-05T08:16:26.833Z,8.20
2022-11-05T08:18:53.417Z,8.20
2022-11-05T08:21:20.027Z,8.20
2022-11-05T08:23:46.641Z,8.20
2022-11-05T08:26:13.219Z,8.30
2022-11-05T08:28:39.817Z,8.30
2022-11-05T08:31:06.394Z,8.30
2022-11-05T08:33:32.997Z,8.30
2022-11-05T08:36:03.169Z,8.30
2022-11-05T08:38:29.758Z,8.30
2022-11-05T08:40:57.814Z,8.40
2022-11-05T08:43:24.661Z,8.40
2022-11-05T08:45:51.264Z,8.40
2022-11-05T08:48:18.840Z,8.40
2022-11-05T08:50:47.104Z,8.50
2022-11-05T08:53:14.350Z,8.40
2022-11-05T08:55:41.392Z,8.50
2022-11-05T08:58:11.488Z,8.50
2022-11-05T09:00:39.162Z,8.60
2022-11-05T09:03:07.811Z,8.60
2022-11-05T09:05:36.092Z,8.60
2022-11-05T09:08:02.748Z,8.60
2022-11-05T09:10:29.329Z,8.70
2022-11-05T09:12:55.976Z,8.70
2022-11-05T09:15:22.707Z,8.70
2022-11-05T09:17:49.366Z,8.70
2022-11-05T09:20:15.985Z,8.70
2022-11-05T09:22:43.560Z,8.70
2022-11-05T09:25:10.349Z,8.60
2022-11-05T09:27:37.132Z,8.70
2022-11-05T09:30:04.817Z,8.70
2022-11-05T09:32:32.460Z,8.70
2022-11-05T09:34:59.096Z,8.70
2022-11-05T09:37:25.784Z,8.80
2022-11-05T09:39:53.206Z,8.80
2022-11-05T09:42:22.998Z,8.80
2022-11-05T09:44:54.612Z,8.90
2022-11-05T09:47:27.491Z,8.80
2022-11-05T09:49:56.950Z,8.80
2022-11-05T09:52:26.267Z,8.80
2022-11-05T09:54:54.000Z,8.70
2022-11-05T09:57:43.551Z,8.70
2022-11-05T10:00:13.467Z,8.70
2022-11-05T10:02:50.565Z,8.70
2022-11-05T10:05:18.653Z,8.70
2022-11-05T10:07:51.231Z,8.70
2022-11-05T10:10:43.485Z,8.70
2022-11-05T10:13:15.013Z,8.60
2022-11-05T10:15:48.798Z,8.60
2022-11-05T10:18:37.043Z,8.70
2022-11-05T10:21:04.274Z,8.60
2022-11-05T10:23:30.925Z,8.60
2022-11-05T10:26:02.791Z,8.50
2022-11-05T10:28:32.713Z,8.60
2022-11-05T10:31:09.509Z,8.50
2022-11-05T10:33:45.347Z,8.60
2022-11-05T10:36:23.247Z,8.60
2022-11-05T10:38:50.959Z,8.70
2022-11-05T10:41:47.922Z,8.80
2022-11-05T10:44:32.639Z,8.90
2022-11-05T10:47:32.227Z,9.00
2022-11-05T10:50:02.160Z,9.10
2022-11-05T10:52:38.029Z,9.10
2022-11-05T10:55:14.706Z,9.30
2022-11-05T10:57:42.279Z,9.40
2022-11-05T11:00:14.910Z,9.40
2022-11-05T11:03:02.271Z,9.50
2022-11-05T11:05:36.347Z,9.60
2022-11-05T11:08:22.220Z,9.70
2022-11-05T11:10:57.827Z,9.70
2022-11-05T11:13:29.638Z,9.70
2022-11-05T11:16:15.841Z,9.60
2022-11-05T11:18:43.727Z,9.60
2022-11-05T11:21:18.993Z,9.60
2022-11-05T11:23:56.083Z,9.50
2022-11-05T11:26:25.642Z,9.60
2022-11-05T11:29:05.326Z,9.50
2022-11-05T11:31:33.277Z,9.40
2022-11-05T11:34:05.767Z,9.30
2022-11-05T11:36:38.203Z,9.30
2022-11-05T11:39:06.889Z,9.30
2022-11-05T11:41:40.247Z,9.20
2022-11-05T11:44:12.756Z,9.20
2022-11-05T11:46:39.717Z,9.30
2022-11-05T11:49:06.752Z,9.20
2022-11-05T11:51:38.902Z,9.20
2022-11-05T11:54:05.678Z,9.20
2022-11-05T11:56:47.558Z,9.30
2022-11-05T11:59:46.711Z,9.20
2022-11-05T12:02:33.689Z,9.30
2022-11-05T12:05:22.577Z,9.30
2022-11-05T12:07:55.474Z,9.30
2022-11-05T12:10:24.940Z,9.30
2022-11-05T12:13:00.531Z,9.30
2022-11-05T12:15:27.094Z,9.30
2022-11-05T12:18:30.302Z,9.30
2022-11-05T12:21:15.349Z,9.40
2022-11-05T12:23:51.723Z,9.30
2022-11-05T12:26:52.368Z,9.30
2022-11-05T12:29:46.855Z,9.40
2022-11-05T12:32:25.439Z,9.30
2022-11-05T12:35:10.823Z,9.30
2022-11-05T12:37:55.118Z,9.40
2022-11-05T12:40:36.368Z,9.40
2022-11-05T12:43:12.209Z,9.40
2022-11-05T12:45:57.021Z,9.50
2022-11-05T12:48:35.769Z,9.50
2022-11-05T12:51:18.924Z,9.50
2022-11-05T12:54:10.274Z,9.50
2022-11-05T12:56:49.740Z,9.50
2022-11-05T12:59:34.390Z,9.50
2022-11-05T13:02:20.448Z,9.60
2022-11-05T13:05:02.159Z,9.60
2022-11-05T13:07:33.160Z,9.70
2022-11-05T13:10:07.671Z,9.70
2022-11-05T13:12:39.149Z,9.70
2022-11-05T13:15:17.247Z,9.60
2022-11-05T13:18:15.025Z,9.60
2022-11-05T13:20:46.251Z,9.60
2022-11-05T13:23:37.630Z,9.60
2022-11-05T13:26:26.664Z,9.60
2022-11-05T13:29:11.941Z,9.60
2022-11-05T13:31:43.332Z,9.60
2022-11-05T13:34:12.222Z,9.60
2022-11-05T13:36:58.640Z,9.50
2022-11-05T13:39:35.579Z,9.60
2022-11-05T13:42:28.273Z,9.60
2022-11-05T13:45:49.000Z,9.60
2022-11-05T13:48:58.930Z,9.60
2022-11-05T13:51:47.346Z,9.70
2022-11-05T13:54:48.428Z,9.70
2022-11-05T13:57:54.451Z,9.70
2022-11-05T14:00:30.343Z,9.60
2022-11-05T14:03:02.099Z,9.60
2022-11-05T14:05:36.124Z,9.60
2022-11-05T14:08:11.058Z,9.40
2022-11-05T14:10:41.966Z,9.40
2022-11-05T14:13:23.142Z,9.30
2022-11-05T14:16:03.875Z,9.10
2022-11-05T14:18:38.299Z,9.10
2022-11-05T14:21:06.854Z,9.20
2022-11-05T14:23:39.508Z,9.20
2022-11-05T14:26:21.241Z,9.20
2022-11-05T14:29:04.241Z,9.30
2022-11-05T14:32:08.467Z,9.30
2022-11-05T14:34:42.231Z,9.30
2022-11-05T14:37:11.658Z,9.20
2022-11-05T14:39:39.571Z,9.20
2022-11-05T14:42:16.904Z,9.20
2022-11-05T14:45:18.421Z,9.20
2022-11-05T14:47:54.242Z,9.30
2022-11-05T14:50:31.975Z,9.30
2022-11-05T14:53:07.642Z,9.30
2022-11-05T14:55:37.557Z,9.30
2022-11-05T14:58:24.590Z,9.30
2022-11-05T15:00:51.760Z,9.30
2022-11-05T15:03:41.110Z,9.30
2022-11-05T15:06:29.270Z,9.30
2022-11-05T15:09:17.857Z,9.20
2022-11-05T15:11:59.318Z,9.20
2022-11-05T15:14:36.148Z,9.10
2022-11-05T15:17:18.135Z,9.00
2022-11-05T15:19:45.562Z,9.00
2022-11-05T15:22:43.736Z,9.00
2022-11-05T15:25:23.201Z,8.90
2022-11-05T15:28:04.567Z,8.90
2022-11-05T15:30:31.378Z,8.90
2022-11-05T15:33:18.886Z,8.90
2022-11-05T15:35:45.479Z,8.80
2022-11-05T15:38:41.261Z,8.90
2022-11-05T15:41:29.144Z,8.90
2022-11-05T15:43:55.736Z,8.70
2022-11-05T15:46:24.561Z,8.80
2022-11-05T15:49:05.896Z,8.70
2022-11-05T15:51:33.134Z,8.70
2022-11-05T15:54:29.283Z,8.70
2022-11-05T15:56:54.427Z,8.70
2022-11-05T15:59:23.390Z,8.70
2022-11-05T16:02:04.026Z,8.70
2022-11-05T16:04:34.131Z,8.70
2022-11-05T16:07:10.699Z,8.70
2022-11-05T16:09:40.428Z,8.70
2022-11-05T16:12:19.157Z,8.60
2022-11-05T16:14:57.763Z,8.60
2022-11-05T16:17:27.140Z,8.60
2022-11-05T16:19:54.046Z,8.60
2022-11-05T16:22:20.669Z,8.60
2022-11-05T16:24:47.806Z,8.50
2022-11-05T16:27:22.164Z,8.50
2022-11-05T16:29:56.805Z,8.40
2022-11-05T16:32:31.735Z,8.40
2022-11-05T16:35:03.070Z,8.40
2022-11-05T16:37:37.397Z,8.30
2022-11-05T16:40:17.696Z,8.30
2022-11-05T16:42:45.033Z,8.30
2022-11-05T16:45:14.040Z,8.30
2022-11-05T16:47:40.788Z,8.30
2022-11-05T16:50:13.882Z,8.30
2022-11-05T16:52:40.493Z,8.30
2022-11-05T16:55:07.990Z,8.20
2022-11-05T16:57:34.694Z,8.20
2022-11-05T17:00:01.457Z,8.20
2022-11-05T17:02:28.143Z,8.20
2022-11-05T17:04:54.829Z,8.20
2022-11-05T17:07:21.437Z,8.20
2022-11-05T17:09:48.022Z,8.20
2022-11-05T17:12:15.249Z,8.20
2022-11-05T17:14:41.991Z,8.20
2022-11-05T17:17:08.688Z,8.20
2022-11-05T17:19:35.279Z,8.30
2022-11-05T17:22:01.891Z,8.20
2022-11-05T17:24:28.462Z,8.30
2022-11-05T17:26:55.095Z,8.30
2022-11-05T17:29:21.688Z,8.30
2022-11-05T17:31:48.342Z,8.30
2022-11-05T17:34:15.000Z,8.40
2022-11-05T17:36:41.579Z,8.40
2022-11-05T17:39:08.225Z,8.40
2022-11-05T17:41:34.818Z,8.40
2022-11-05T17:44:01.445Z,8.40
2022-11-05T17:46:28.081Z,8.30
2022-11-05T17:48:55.030Z,8.30
2022-11-05T17:51:21.715Z,8.30
2022-11-05T17:53:48.655Z,8.40
2022-11-05T17:56:27.496Z,8.40
2022-11-05T17:59:01.163Z,8.30
2022-11-05T18:01:30.247Z,8.40
2022-11-05T18:03:57.000Z,8.30
2022-11-05T18:06:23.703Z,8.40
2022-11-05T18:08:50.286Z,8.40
2022-11-05T18:11:17.169Z,8.30
2022-11-05T18:13:43.793Z,8.40
2022-11-05T18:16:10.550Z,8.40
2022-11-05T18:18:37.239Z,8.40
2022-11-05T18:21:03.914Z,8.40
2022-11-05T18:23:30.506Z,8.40
2022-11-05T18:25:57.167Z,8.40
2022-11-05T18:28:23.844Z,8.40
2022-11-05T18:30:50.487Z,8.40
2022-11-05T18:33:17.390Z,8.40
2022-11-05T18:35:44.620Z,8.30
2022-11-05T18:38:11.739Z,8.30
2022-11-05T18:40:38.358Z,8.30
2022-11-05T18:43:04.977Z,8.30
2022-11-05T18:45:31.603Z,8.30
2022-11-05T18:48:00.220Z,8.30
2022-11-05T18:50:27.187Z,8.30
2022-11-05T18:52:53.943Z,8.30
2022-11-05T18:55:20.636Z,8.30
2022-11-05T18:57:47.487Z,8.30
2022-11-05T19:00:14.663Z,8.30
2022-11-05T19:02:41.443Z,8.20
2022-11-05T19:05:28.517Z,8.20
2022-11-05T19:07:55.024Z,8.20
2022-11-05T19:10:21.605Z,8.10
2022-11-05T19:12:48.208Z,8.10
2022-11-05T19:15:14.834Z,8.00
2022-11-05T19:17:41.450Z,8.00
2022-11-05T19:20:08.819Z,7.90
2022-11-05T19:22:35.412Z,7.90
2022-11-05T19:25:02.021Z,7.90
2022-11-05T19:27:28.609Z,7.80
2022-11-05T19:29:55.208Z,7.90
2022-11-05T19:32:21.830Z,7.90
2022-11-05T19:34:48.432Z,7.80
2022-11-05T19:37:15.058Z,7.80
2022-11-05T19:39:41.631Z,7.80
2022-11-05T19:42:08.224Z,7.90
2022-11-05T19:44:34.895Z,7.90
2022-11-05T19:47:01.495Z,7.90
2022-11-05T19:49:28.099Z,7.90
2022-11-05T19:51:54.760Z,7.90
2022-11-05T19:54:21.365Z,7.90
2022-11-05T19:56:49.829Z,7.90
2022-11-05T19:59:16.431Z,7.80
2022-11-05T20:01:43.231Z,7.80
2022-11-05T20:04:10.003Z,7.80
2022-11-05T20:06:38.029Z,7.80
2022-11-05T20:09:26.062Z,7.80
2022-11-05T20:11:54.795Z,7.70
2022-11-05T20:14:22.699Z,7.70
2022-11-05T20:16:50.268Z,7.70
2022-11-05T20:19:20.193Z,7.70
2022-11-05T20:21:47.151Z,7.70
2022-11-05T20:24:22.455Z,7.70
2022-11-05T20:26:51.814Z,7.60
2022-11-05T20:29:18.417Z,7.60
2022-11-05T20:31:45.151Z,7.60
2022-11-05T20:34:11.756Z,7.60
2022-11-05T20:36:39.070Z,7.60
2022-11-05T20:39:05.663Z,7.60
2022-11-05T20:41:32.506Z,7.60
2022-11-05T20:43:59.236Z,7.60
2022-11-05T20:46:25.832Z,7.60
2022-11-05T20:48:53.523Z,7.60
2022-11-05T20:51:22.429Z,7.60
2022-11-05T20:53:49.091Z,7.60
2022-11-05T20:56:25.268Z,7.60
2022-11-05T20:58:52.621Z,7.60
2022-11-05T21:01:20.175Z,7.60
2022-11-05T21:03:47.582Z,7.60
2022-11-05T21:06:14.651Z,7.50
2022-11-05T21:08:42.216Z,7.50
2022-11-05T21:11:09.964Z,7.50
2022-11-05T21:13:36.701Z,7.40
2022-11-05T21:16:06.539Z,7.40
2022-11-05T21:18:35.328Z,7.30
2022-11-05T21:21:07.548Z,7.30
2022-11-05T21:23:34.501Z,7.30
2022-11-05T21:26:05.155Z,7.20
2022-11-05T21:28:32.308Z,7.20
2022-11-05T21:31:03.560Z,7.20
2022-11-05T21:33:30.342Z,7.10
2022-11-05T21:35:57.205Z,7.10
2022-11-05T21:38:24.224Z,7.00
2022-11-05T21:40:51.368Z,7.00
2022-11-05T21:43:18.009Z,7.00
2022-11-05T21:45:45.059Z,6.90
2022-11-05T21:48:12.383Z,6.90
2022-11-05T21:50:39.496Z,6.80
2022-11-05T21:53:06.082Z,6.80
2022-11-05T21:55:32.692Z,6.80
2022-11-05T21:58:02.583Z,6.80
2022-11-05T22:00:29.646Z,6.70
2022-11-05T22:02:56.285Z,6.60
2022-11-05T22:05:22.983Z,6.60
2022-11-05T22:07:49.545Z,6.60
2022-11-05T22:10:16.679Z,6.50
2022-11-05T22:12:44.441Z,6.50
2022-11-05T22:15:11.588Z,6.50
2022-11-05T22:17:41.394Z,6.40
2022-11-05T22:20:10.634Z,6.40
2022-11-05T22:22:37.229Z,6.30
2022-11-05T22:25:04.491Z,6.30
2022-11-05T22:27:31.083Z,6.30
2022-11-05T22:29:57.654Z,6.30
2022-11-05T22:32:24.256Z,6.20
2022-11-05T22:34:50.839Z,6.10
2022-11-05T22:37:17.727Z,6.10
2022-11-05T22:39:44.404Z,6.10
2022-11-05T22:42:11.058Z,6.00
2022-11-05T22:44:37.701Z,5.90
2022-11-05T22:47:04.522Z,5.90
2022-11-05T22:49:31.389Z,5.90
2022-11-05T22:51:57.971Z,5.90
2022-11-05T22:54:24.571Z,5.90
2022-11-05T22:56:51.147Z,5.80
2022-11-05T22:59:17.790Z,5.80
2022-11-05T23:01:45.213Z,5.80
2022-11-05T23:04:13.355Z,5.70
2022-11-05T23:06:40.065Z,5.70
2022-11-05T23:09:32.207Z,5.60
2022-11-05T23:11:58.823Z,5.60
2022-11-05T23:14:26.385Z,5.60
2022-11-05T23:16:53.106Z,5.50
2022-11-05T23:19:20.213Z,5.50
2022-11-05T23:21:46.785Z,5.50
2022-11-05T23:24:13.510Z,5.50
2022-11-05T23:26:40.375Z,5.40
2022-11-05T23:29:06.940Z,5.40
2022-11-05T23:31:33.511Z,5.40
2022-11-05T23:34:00.105Z,5.30
2022-11-05T23:36:26.675Z,5.30
2022-11-05T23:38:53.249Z,5.20
2022-11-05T23:41:19.808Z,5.20
2022-11-05T23:43:46.434Z,5.20
2022-11-05T23:46:12.999Z,5.20
2022-11-05T23:48:39.581Z,5.20
2022-11-05T23:51:10.741Z,5.20
2022-11-05T23:53:39.306Z,5.10
2022-11-05T23:56:09.195Z,5.10
2022-11-05T23:58:37.176Z,5.10
